sensor_id;sensor_type;location;lat;lon;timestamp;pressure;altitude;pressure_sealevel;temperature;humidity
76086;BME280;64791;0.000;0.000;2023-09-19T00:00:36;94229.28;;;14.99;65.31
76086;BME280;64791;0.000;0.000;2023-09-19T00:03:02;94217.25;;;14.97;65.48
76086;BME280;64791;0.000;0.000;2023-09-19T00:05:30;94220.81;;;14.90;64.94
76086;BME280;64791;0.000;0.000;2023-09-19T00:08:00;94223.75;;;15.17;63.81
76086;BME280;64791;0.000;0.000;2023-09-19T00:10:26;94225.53;;;15.22;63.57
76086;BME280;64791;0.000;0.000;2023-09-19T00:12:55;94225.72;;;15.41;62.75
76086;BME280;64791;0.000;0.000;2023-09-19T00:15:22;94228.84;;;15.45;62.64
76086;BME280;64791;0.000;0.000;2023-09-19T00:17:47;94215.09;;;15.47;61.97
76086;BME280;64791;0.000;0.000;2023-09-19T00:20:14;94214.88;;;15.52;61.33
76086;BME280;64791;0.000;0.000;2023-09-19T00:22:42;94204.22;;;15.24;62.32
76086;BME280;64791;0.000;0.000;2023-09-19T00:25:08;94202.22;;;15.00;64.65
76086;BME280;64791;0.000;0.000;2023-09-19T00:27:40;94204.31;;;14.92;65.27
76086;BME280;64791;0.000;0.000;2023-09-19T00:30:09;94202.75;;;14.81;65.23
76086;BME280;64791;0.000;0.000;2023-09-19T00:32:55;94214.06;;;15.00;64.69
76086;BME280;64791;0.000;0.000;2023-09-19T00:38:08;94201.50;;;14.99;65.11
76086;BME280;64791;0.000;0.000;2023-09-19T00:40:34;94208.50;;;15.00;64.95
76086;BME280;64791;0.000;0.000;2023-09-19T00:43:00;94196.28;;;15.03;64.46
76086;BME280;64791;0.000;0.000;2023-09-19T00:45:26;94199.31;;;14.73;65.57
76086;BME280;64791;0.000;0.000;2023-09-19T00:47:52;94188.69;;;14.79;65.89
76086;BME280;64791;0.000;0.000;2023-09-19T00:50:18;94196.06;;;14.84;65.80
76086;BME280;64791;0.000;0.000;2023-09-19T00:52:44;94202.34;;;14.85;65.32
76086;BME280;64791;0.000;0.000;2023-09-19T00:55:11;94204.31;;;14.92;64.99
76086;BME280;64791;0.000;0.000;2023-09-19T00:57:38;94200.88;;;14.84;64.59
76086;BME280;64791;0.000;0.000;2023-09-19T01:00:05;94201.81;;;15.03;64.55
76086;BME280;64791;0.000;0.000;2023-09-19T01:02:34;94196.09;;;15.01;63.97
76086;BME280;64791;0.000;0.000;2023-09-19T01:05:00;94202.94;;;15.00;64.46
76086;BME280;64791;0.000;0.000;2023-09-19T01:07:29;94191.78;;;15.08;64.59
76086;BME280;64791;0.000;0.000;2023-09-19T01:10:03;94191.25;;;14.85;64.97
76086;BME280;64791;0.000;0.000;2023-09-19T01:15:58;94178.56;;;14.74;65.36
76086;BME280;64791;0.000;0.000;2023-09-19T01:18:00;94185.59;;;14.75;65.71
76086;BME280;64791;0.000;0.000;2023-09-19T01:22:58;94187.66;;;14.50;67.46
76086;BME280;64791;0.000;0.000;2023-09-19T01:30:35;94188.88;;;14.81;66.07
76086;BME280;64791;0.000;0.000;2023-09-19T01:33:05;94190.91;;;14.81;65.47
76086;BME280;64791;0.000;0.000;2023-09-19T01:35:31;94194.22;;;14.87;64.55
76086;BME280;64791;0.000;0.000;2023-09-19T01:37:58;94180.09;;;14.68;64.86
76086;BME280;64791;0.000;0.000;2023-09-19T01:40:24;94184.63;;;14.31;67.43
76086;BME280;64791;0.000;0.000;2023-09-19T01:47:56;94171.00;;;14.43;67.11
76086;BME280;64791;0.000;0.000;2023-09-19T01:50:30;94171.56;;;14.49;67.12
76086;BME280;64791;0.000;0.000;2023-09-19T01:53:50;94171.88;;;14.28;67.57
76086;BME280;64791;0.000;0.000;2023-09-19T01:55:55;94170.69;;;14.38;67.53
76086;BME280;64791;0.000;0.000;2023-09-19T02:00:49;94164.22;;;14.44;66.89
76086;BME280;64791;0.000;0.000;2023-09-19T02:03:18;94176.47;;;14.58;66.64
76086;BME280;64791;0.000;0.000;2023-09-19T02:05:51;94172.69;;;14.46;66.50
76086;BME280;64791;0.000;0.000;2023-09-19T02:08:20;94177.28;;;14.51;66.14
76086;BME280;64791;0.000;0.000;2023-09-19T02:10:45;94174.13;;;14.54;66.53
76086;BME280;64791;0.000;0.000;2023-09-19T02:13:17;94177.22;;;14.58;66.28
76086;BME280;64791;0.000;0.000;2023-09-19T02:15:44;94175.06;;;14.49;66.63
76086;BME280;64791;0.000;0.000;2023-09-19T02:18:10;94178.91;;;14.54;66.30
76086;BME280;64791;0.000;0.000;2023-09-19T02:20:37;94184.34;;;14.44;65.63
76086;BME280;64791;0.000;0.000;2023-09-19T02:23:03;94184.63;;;14.56;65.49
76086;BME280;64791;0.000;0.000;2023-09-19T02:25:28;94175.72;;;14.32;65.36
76086;BME280;64791;0.000;0.000;2023-09-19T02:27:54;94187.66;;;14.43;64.86
76086;BME280;64791;0.000;0.000;2023-09-19T02:30:24;94188.84;;;14.32;65.32
76086;BME280;64791;0.000;0.000;2023-09-19T02:32:50;94193.13;;;14.33;65.15
76086;BME280;64791;0.000;0.000;2023-09-19T02:35:16;94206.09;;;14.23;65.40
76086;BME280;64791;0.000;0.000;2023-09-19T02:37:45;94203.56;;;14.17;64.92
76086;BME280;64791;0.000;0.000;2023-09-19T02:40:11;94200.06;;;14.17;64.95
76086;BME280;64791;0.000;0.000;2023-09-19T02:42:54;94202.72;;;14.07;66.15
76086;BME280;64791;0.000;0.000;2023-09-19T02:45:22;94187.41;;;13.99;66.09
76086;BME280;64791;0.000;0.000;2023-09-19T02:47:49;94184.16;;;13.78;66.14
76086;BME280;64791;0.000;0.000;2023-09-19T02:50:15;94187.69;;;13.78;66.12
76086;BME280;64791;0.000;0.000;2023-09-19T02:52:44;94178.63;;;13.78;65.49
76086;BME280;64791;0.000;0.000;2023-09-19T02:55:11;94178.84;;;13.72;66.34
76086;BME280;64791;0.000;0.000;2023-09-19T02:57:38;94162.84;;;13.55;66.16
76086;BME280;64791;0.000;0.000;2023-09-19T03:00:07;94165.16;;;13.34;67.34
76086;BME280;64791;0.000;0.000;2023-09-19T03:02:33;94150.53;;;13.26;67.27
76086;BME280;64791;0.000;0.000;2023-09-19T03:05:00;94142.09;;;13.09;69.56
76086;BME280;64791;0.000;0.000;2023-09-19T03:07:28;94138.06;;;13.03;71.54
76086;BME280;64791;0.000;0.000;2023-09-19T03:09:54;94137.91;;;12.93;72.86
76086;BME280;64791;0.000;0.000;2023-09-19T03:12:20;94136.03;;;13.03;72.74
76086;BME280;64791;0.000;0.000;2023-09-19T03:14:47;94128.66;;;13.06;73.26
76086;BME280;64791;0.000;0.000;2023-09-19T03:17:13;94137.66;;;13.14;72.57
76086;BME280;64791;0.000;0.000;2023-09-19T03:19:40;94133.41;;;13.20;72.47
76086;BME280;64791;0.000;0.000;2023-09-19T03:22:06;94126.56;;;13.21;71.78
76086;BME280;64791;0.000;0.000;2023-09-19T03:24:33;94128.78;;;13.23;71.64
76086;BME280;64791;0.000;0.000;2023-09-19T03:27:01;94130.03;;;13.37;70.25
76086;BME280;64791;0.000;0.000;2023-09-19T03:29:28;94141.06;;;13.52;68.95
76086;BME280;64791;0.000;0.000;2023-09-19T03:31:54;94141.38;;;13.64;68.63
76086;BME280;64791;0.000;0.000;2023-09-19T03:34:20;94150.78;;;13.68;67.29
76086;BME280;64791;0.000;0.000;2023-09-19T03:36:46;94154.84;;;13.67;67.10
76086;BME280;64791;0.000;0.000;2023-09-19T03:39:12;94156.56;;;13.55;67.45
76086;BME280;64791;0.000;0.000;2023-09-19T03:41:40;94159.19;;;13.45;68.46
76086;BME280;64791;0.000;0.000;2023-09-19T03:44:06;94157.91;;;13.39;67.62
76086;BME280;64791;0.000;0.000;2023-09-19T03:46:32;94151.09;;;13.32;67.92
76086;BME280;64791;0.000;0.000;2023-09-19T03:48:58;94147.78;;;13.26;67.79
76086;BME280;64791;0.000;0.000;2023-09-19T03:51:24;94131.25;;;13.04;67.92
76086;BME280;64791;0.000;0.000;2023-09-19T03:53:50;94126.28;;;13.02;68.69
76086;BME280;64791;0.000;0.000;2023-09-19T03:56:16;94133.31;;;12.88;70.31
76086;BME280;64791;0.000;0.000;2023-09-19T03:58:41;94129.63;;;12.85;70.99
76086;BME280;64791;0.000;0.000;2023-09-19T04:01:07;94131.88;;;12.72;72.86
76086;BME280;64791;0.000;0.000;2023-09-19T04:03:33;94135.53;;;12.74;72.02
76086;BME280;64791;0.000;0.000;2023-09-19T04:06:12;94147.69;;;12.94;71.37
76086;BME280;64791;0.000;0.000;2023-09-19T04:08:38;94146.53;;;13.12;70.37
76086;BME280;64791;0.000;0.000;2023-09-19T04:11:04;94144.66;;;13.22;69.72
76086;BME280;64791;0.000;0.000;2023-09-19T04:13:30;94145.06;;;13.19;69.00
76086;BME280;64791;0.000;0.000;2023-09-19T04:15:56;94146.31;;;13.25;68.85
76086;BME280;64791;0.000;0.000;2023-09-19T04:18:22;94155.59;;;13.13;68.95
76086;BME280;64791;0.000;0.000;2023-09-19T04:20:49;94163.94;;;12.98;69.01
76086;BME280;64791;0.000;0.000;2023-09-19T04:23:15;94170.22;;;12.91;69.97
76086;BME280;64791;0.000;0.000;2023-09-19T04:25:42;94175.91;;;13.08;69.01
76086;BME280;64791;0.000;0.000;2023-09-19T04:28:08;94179.59;;;13.10;69.36
76086;BME280;64791;0.000;0.000;2023-09-19T04:30:35;94182.53;;;13.12;69.24
76086;BME280;64791;0.000;0.000;2023-09-19T04:33:01;94185.47;;;13.22;68.75
76086;BME280;64791;0.000;0.000;2023-09-19T04:35:27;94191.38;;;13.33;68.84
76086;BME280;64791;0.000;0.000;2023-09-19T04:37:54;94193.41;;;13.33;68.31
76086;BME280;64791;0.000;0.000;2023-09-19T04:40:23;94190.63;;;13.25;68.13
76086;BME280;64791;0.000;0.000;2023-09-19T04:42:56;94175.31;;;13.32;68.34
76086;BME280;64791;0.000;0.000;2023-09-19T04:45:22;94173.25;;;13.32;67.94
76086;BME280;64791;0.000;0.000;2023-09-19T04:47:47;94175.88;;;13.23;68.52
76086;BME280;64791;0.000;0.000;2023-09-19T04:50:13;94175.13;;;13.22;68.61
76086;BME280;64791;0.000;0.000;2023-09-19T04:52:40;94177.31;;;13.24;68.45
76086;BME280;64791;0.000;0.000;2023-09-19T04:55:08;94178.63;;;13.30;68.66
76086;BME280;64791;0.000;0.000;2023-09-19T04:57:34;94176.78;;;13.18;68.61
76086;BME280;64791;0.000;0.000;2023-09-19T05:00:00;94177.31;;;13.24;69.28
76086;BME280;64791;0.000;0.000;2023-09-19T05:02:25;94181.19;;;13.28;69.88
76086;BME280;64791;0.000;0.000;2023-09-19T05:04:55;94164.22;;;13.24;69.68
76086;BME280;64791;0.000;0.000;2023-09-19T05:07:24;94156.88;;;13.19;70.72
76086;BME280;64791;0.000;0.000;2023-09-19T05:09:51;94156.31;;;13.21;70.75
76086;BME280;64791;0.000;0.000;2023-09-19T05:12:17;94167.56;;;13.23;71.10
76086;BME280;64791;0.000;0.000;2023-09-19T05:14:45;94165.53;;;13.23;71.21
76086;BME280;64791;0.000;0.000;2023-09-19T05:17:10;94166.06;;;13.22;73.10
76086;BME280;64791;0.000;0.000;2023-09-19T05:19:36;94156.84;;;13.27;72.33
76086;BME280;64791;0.000;0.000;2023-09-19T05:22:02;94152.53;;;13.48;71.88
76086;BME280;64791;0.000;0.000;2023-09-19T05:24:29;94155.97;;;13.64;71.04
76086;BME280;64791;0.000;0.000;2023-09-19T05:26:56;94145.66;;;13.57;72.13
76086;BME280;64791;0.000;0.000;2023-09-19T05:29:22;94146.19;;;13.63;73.33
76086;BME280;64791;0.000;0.000;2023-09-19T05:31:48;94140.03;;;13.72;72.04
76086;BME280;64791;0.000;0.000;2023-09-19T05:34:15;94129.34;;;14.01;72.31
76086;BME280;64791;0.000;0.000;2023-09-19T05:36:40;94139.00;;;13.92;73.08
76086;BME280;64791;0.000;0.000;2023-09-19T05:39:07;94138.63;;;13.88;72.90
76086;BME280;64791;0.000;0.000;2023-09-19T05:41:35;94136.63;;;13.89;73.62
76086;BME280;64791;0.000;0.000;2023-09-19T05:44:02;94136.59;;;13.96;73.08
76086;BME280;64791;0.000;0.000;2023-09-19T05:46:28;94135.81;;;14.28;71.99
76086;BME280;64791;0.000;0.000;2023-09-19T05:48:55;94143.97;;;14.26;73.19
76086;BME280;64791;0.000;0.000;2023-09-19T05:51:22;94145.84;;;14.48;72.08
76086;BME280;64791;0.000;0.000;2023-09-19T05:53:48;94152.78;;;14.81;70.48
76086;BME280;64791;0.000;0.000;2023-09-19T05:56:14;94146.75;;;15.09;70.20
76086;BME280;64791;0.000;0.000;2023-09-19T05:58:40;94148.16;;;15.18;70.78
76086;BME280;64791;0.000;0.000;2023-09-19T06:01:08;94144.38;;;15.57;69.20
76086;BME280;64791;0.000;0.000;2023-09-19T06:03:35;94130.03;;;16.05;66.23
76086;BME280;64791;0.000;0.000;2023-09-19T06:06:01;94128.25;;;16.26;65.86
76086;BME280;64791;0.000;0.000;2023-09-19T06:08:27;94124.72;;;16.26;66.20
76086;BME280;64791;0.000;0.000;2023-09-19T06:10:53;94129.28;;;16.04;67.31
76086;BME280;64791;0.000;0.000;2023-09-19T06:13:19;94127.41;;;16.07;67.91
76086;BME280;64791;0.000;0.000;2023-09-19T06:15:45;94115.63;;;16.25;66.59
76086;BME280;64791;0.000;0.000;2023-09-19T06:18:12;94108.78;;;16.36;66.76
76086;BME280;64791;0.000;0.000;2023-09-19T06:20:46;94115.81;;;16.83;64.11
76086;BME280;64791;0.000;0.000;2023-09-19T06:23:11;94117.13;;;16.82;64.78
76086;BME280;64791;0.000;0.000;2023-09-19T06:25:37;94120.53;;;17.09;64.64
76086;BME280;64791;0.000;0.000;2023-09-19T06:28:02;94120.84;;;17.51;63.55
76086;BME280;64791;0.000;0.000;2023-09-19T06:30:30;94118.88;;;17.92;61.76
76086;BME280;64791;0.000;0.000;2023-09-19T06:32:56;94117.38;;;18.10;61.25
76086;BME280;64791;0.000;0.000;2023-09-19T06:35:22;94112.38;;;18.58;58.40
76086;BME280;64791;0.000;0.000;2023-09-19T06:37:48;94113.69;;;18.57;57.81
76086;BME280;64791;0.000;0.000;2023-09-19T06:40:16;94121.34;;;18.57;59.16
76086;BME280;64791;0.000;0.000;2023-09-19T06:42:45;94117.63;;;18.64;57.84
76086;BME280;64791;0.000;0.000;2023-09-19T06:45:12;94113.84;;;18.80;57.85
76086;BME280;64791;0.000;0.000;2023-09-19T06:47:39;94112.59;;;18.72;56.89
76086;BME280;64791;0.000;0.000;2023-09-19T06:50:05;94108.97;;;18.91;57.18
76086;BME280;64791;0.000;0.000;2023-09-19T06:52:34;94108.00;;;19.61;54.75
76086;BME280;64791;0.000;0.000;2023-09-19T06:55:00;94108.44;;;20.23;52.59
76086;BME280;64791;0.000;0.000;2023-09-19T06:57:28;94112.59;;;20.33;54.19
76086;BME280;64791;0.000;0.000;2023-09-19T06:59:56;94109.66;;;20.55;53.83
76086;BME280;64791;0.000;0.000;2023-09-19T07:02:21;94100.34;;;21.22;50.30
76086;BME280;64791;0.000;0.000;2023-09-19T07:04:47;94096.28;;;21.36;49.53
76086;BME280;64791;0.000;0.000;2023-09-19T07:07:15;94110.09;;;21.32;50.55
76086;BME280;64791;0.000;0.000;2023-09-19T07:09:40;94108.72;;;21.45;50.25
76086;BME280;64791;0.000;0.000;2023-09-19T07:12:07;94109.78;;;21.51;50.47
76086;BME280;64791;0.000;0.000;2023-09-19T07:14:33;94117.06;;;21.68;50.28
76086;BME280;64791;0.000;0.000;2023-09-19T07:16:59;94117.69;;;21.66;51.13
76086;BME280;64791;0.000;0.000;2023-09-19T07:19:29;94119.31;;;21.83;49.28
76086;BME280;64791;0.000;0.000;2023-09-19T07:21:55;94122.53;;;22.03;47.77
76086;BME280;64791;0.000;0.000;2023-09-19T07:24:21;94127.97;;;22.12;48.12
76086;BME280;64791;0.000;0.000;2023-09-19T07:26:49;94127.13;;;22.10;47.39
76086;BME280;64791;0.000;0.000;2023-09-19T07:29:15;94123.03;;;21.99;48.59
76086;BME280;64791;0.000;0.000;2023-09-19T07:31:41;94124.00;;;22.04;48.46
76086;BME280;64791;0.000;0.000;2023-09-19T07:34:07;94122.81;;;21.95;48.52
76086;BME280;64791;0.000;0.000;2023-09-19T07:36:34;94119.94;;;22.32;47.77
76086;BME280;64791;0.000;0.000;2023-09-19T07:38:59;94115.06;;;22.46;47.79
76086;BME280;64791;0.000;0.000;2023-09-19T07:41:25;94106.84;;;22.50;46.89
76086;BME280;64791;0.000;0.000;2023-09-19T07:43:51;94112.28;;;22.73;46.37
76086;BME280;64791;0.000;0.000;2023-09-19T07:46:16;94109.19;;;22.81;46.18
76086;BME280;64791;0.000;0.000;2023-09-19T07:48:42;94107.94;;;22.70;46.29
76086;BME280;64791;0.000;0.000;2023-09-19T07:51:13;94112.50;;;22.91;46.56
76086;BME280;64791;0.000;0.000;2023-09-19T07:53:41;94117.94;;;23.14;45.87
76086;BME280;64791;0.000;0.000;2023-09-19T07:56:08;94123.91;;;23.20;44.48
76086;BME280;64791;0.000;0.000;2023-09-19T07:58:35;94115.47;;;23.20;45.71
76086;BME280;64791;0.000;0.000;2023-09-19T08:01:08;94124.50;;;23.46;44.97
76086;BME280;64791;0.000;0.000;2023-09-19T08:03:39;94115.72;;;23.53;44.22
76086;BME280;64791;0.000;0.000;2023-09-19T08:06:09;94114.38;;;23.54;44.12
76086;BME280;64791;0.000;0.000;2023-09-19T08:08:35;94111.22;;;23.62;43.02
76086;BME280;64791;0.000;0.000;2023-09-19T08:11:04;94118.34;;;23.49;43.91
76086;BME280;64791;0.000;0.000;2023-09-19T08:13:38;94111.94;;;23.62;44.27
76086;BME280;64791;0.000;0.000;2023-09-19T08:16:09;94113.59;;;23.67;43.75
76086;BME280;64791;0.000;0.000;2023-09-19T08:18:35;94109.03;;;23.60;42.61
76086;BME280;64791;0.000;0.000;2023-09-19T08:21:01;94113.81;;;23.58;44.19
76086;BME280;64791;0.000;0.000;2023-09-19T08:23:27;94124.13;;;23.67;43.92
76086;BME280;64791;0.000;0.000;2023-09-19T08:25:56;94113.28;;;23.75;44.65
76086;BME280;64791;0.000;0.000;2023-09-19T08:28:23;94108.53;;;23.93;44.27
76086;BME280;64791;0.000;0.000;2023-09-19T08:30:50;94111.63;;;23.99;43.70
76086;BME280;64791;0.000;0.000;2023-09-19T08:33:16;94110.94;;;24.14;43.13
76086;BME280;64791;0.000;0.000;2023-09-19T08:35:42;94104.44;;;24.41;42.33
76086;BME280;64791;0.000;0.000;2023-09-19T08:38:08;94111.09;;;24.47;42.09
76086;BME280;64791;0.000;0.000;2023-09-19T08:40:37;94109.56;;;24.60;41.32
76086;BME280;64791;0.000;0.000;2023-09-19T08:43:05;94109.69;;;24.62;41.40
76086;BME280;64791;0.000;0.000;2023-09-19T08:45:32;94107.09;;;24.83;40.83
76086;BME280;64791;0.000;0.000;2023-09-19T08:48:19;94108.94;;;24.77;40.51
76086;BME280;64791;0.000;0.000;2023-09-19T08:51:00;94102.19;;;24.53;40.21
76086;BME280;64791;0.000;0.000;2023-09-19T08:53:41;94096.19;;;24.60;41.21
76086;BME280;64791;0.000;0.000;2023-09-19T08:56:11;94108.13;;;24.74;40.94
76086;BME280;64791;0.000;0.000;2023-09-19T08:58:41;94100.19;;;24.86;39.75
76086;BME280;64791;0.000;0.000;2023-09-19T09:01:09;94093.63;;;24.66;39.65
76086;BME280;64791;0.000;0.000;2023-09-19T09:03:37;94097.53;;;24.75;39.86
76086;BME280;64791;0.000;0.000;2023-09-19T09:06:06;94100.56;;;24.79;41.19
76086;BME280;64791;0.000;0.000;2023-09-19T09:08:32;94098.44;;;24.95;40.65
76086;BME280;64791;0.000;0.000;2023-09-19T09:10:58;94089.97;;;24.95;40.79
76086;BME280;64791;0.000;0.000;2023-09-19T09:13:24;94097.69;;;25.26;40.06
76086;BME280;64791;0.000;0.000;2023-09-19T09:15:51;94097.09;;;25.45;39.54
76086;BME280;64791;0.000;0.000;2023-09-19T09:18:19;94093.47;;;25.27;41.16
76086;BME280;64791;0.000;0.000;2023-09-19T09:20:45;94086.53;;;25.45;40.15
76086;BME280;64791;0.000;0.000;2023-09-19T09:23:12;94084.19;;;25.57;38.93
76086;BME280;64791;0.000;0.000;2023-09-19T09:25:54;94084.06;;;25.71;39.19
76086;BME280;64791;0.000;0.000;2023-09-19T09:28:22;94079.09;;;25.72;39.52
76086;BME280;64791;0.000;0.000;2023-09-19T09:30:48;94075.72;;;25.57;40.25
76086;BME280;64791;0.000;0.000;2023-09-19T09:33:16;94070.34;;;25.81;38.51
76086;BME280;64791;0.000;0.000;2023-09-19T09:38:18;94077.34;;;25.80;39.31
76086;BME280;64791;0.000;0.000;2023-09-19T09:40:50;94062.69;;;26.01;38.92
76086;BME280;64791;0.000;0.000;2023-09-19T09:43:34;94060.16;;;26.09;38.69
76086;BME280;64791;0.000;0.000;2023-09-19T09:48:47;94055.53;;;26.36;37.95
76086;BME280;64791;0.000;0.000;2023-09-19T09:51:48;94060.66;;;26.59;37.45
76086;BME280;64791;0.000;0.000;2023-09-19T09:54:23;94052.59;;;26.71;37.58
76086;BME280;64791;0.000;0.000;2023-09-19T09:56:56;94051.50;;;26.80;36.37
76086;BME280;64791;0.000;0.000;2023-09-19T10:02:09;94051.16;;;26.70;38.16
76086;BME280;64791;0.000;0.000;2023-09-19T10:04:39;94051.22;;;26.91;37.01
76086;BME280;64791;0.000;0.000;2023-09-19T10:07:27;94043.66;;;27.18;36.37
76086;BME280;64791;0.000;0.000;2023-09-19T10:09:57;94041.47;;;27.36;36.41
76086;BME280;64791;0.000;0.000;2023-09-19T10:12:30;94039.50;;;27.40;34.61
76086;BME280;64791;0.000;0.000;2023-09-19T10:14:56;94043.59;;;27.16;36.72
76086;BME280;64791;0.000;0.000;2023-09-19T10:17:24;94045.69;;;27.35;36.85
76086;BME280;64791;0.000;0.000;2023-09-19T10:19:55;94037.00;;;27.72;36.24
76086;BME280;64791;0.000;0.000;2023-09-19T10:22:27;94044.38;;;28.03;35.24
76086;BME280;64791;0.000;0.000;2023-09-19T10:24:56;94035.47;;;28.36;33.43
76086;BME280;64791;0.000;0.000;2023-09-19T10:27:24;94036.31;;;28.17;33.97
76086;BME280;64791;0.000;0.000;2023-09-19T10:29:51;94018.09;;;28.24;34.58
76086;BME280;64791;0.000;0.000;2023-09-19T10:32:21;94025.47;;;28.56;32.70
76086;BME280;64791;0.000;0.000;2023-09-19T10:34:49;94023.63;;;28.67;32.62
76086;BME280;64791;0.000;0.000;2023-09-19T10:37:15;94017.94;;;28.41;33.82
76086;BME280;64791;0.000;0.000;2023-09-19T10:39:45;94016.47;;;28.40;34.47
76086;BME280;64791;0.000;0.000;2023-09-19T10:42:11;94015.91;;;28.70;33.88
76086;BME280;64791;0.000;0.000;2023-09-19T10:44:41;94019.28;;;28.40;33.12
76086;BME280;64791;0.000;0.000;2023-09-19T10:47:09;94013.16;;;28.24;33.34
76086;BME280;64791;0.000;0.000;2023-09-19T10:49:35;94007.38;;;28.20;33.56
76086;BME280;64791;0.000;0.000;2023-09-19T10:52:01;94003.41;;;28.08;34.25
76086;BME280;64791;0.000;0.000;2023-09-19T10:54:31;94005.63;;;28.11;33.48
76086;BME280;64791;0.000;0.000;2023-09-19T10:56:59;94003.69;;;28.16;33.31
76086;BME280;64791;0.000;0.000;2023-09-19T10:59:25;93998.50;;;28.10;33.04
76086;BME280;64791;0.000;0.000;2023-09-19T11:02:00;94007.63;;;28.07;33.87
76086;BME280;64791;0.000;0.000;2023-09-19T11:04:42;93997.59;;;28.04;35.39
76086;BME280;64791;0.000;0.000;2023-09-19T11:07:11;94006.25;;;28.08;34.32
76086;BME280;64791;0.000;0.000;2023-09-19T11:15:06;93992.47;;;27.98;33.79
76086;BME280;64791;0.000;0.000;2023-09-19T11:17:37;94001.47;;;28.14;33.53
76086;BME280;64791;0.000;0.000;2023-09-19T11:30:41;93982.31;;;27.91;33.51
76086;BME280;64791;0.000;0.000;2023-09-19T11:33:18;93970.44;;;27.73;33.33
76086;BME280;64791;0.000;0.000;2023-09-19T11:35:58;93977.41;;;27.70;34.39
76086;BME280;64791;0.000;0.000;2023-09-19T11:43:46;93967.22;;;27.84;35.53
76086;BME280;64791;0.000;0.000;2023-09-19T11:46:12;93962.53;;;27.93;35.22
76086;BME280;64791;0.000;0.000;2023-09-19T11:48:42;93959.09;;;27.97;35.72
76086;BME280;64791;0.000;0.000;2023-09-19T11:51:13;93947.25;;;28.77;33.22
76086;BME280;64791;0.000;0.000;2023-09-19T11:53:47;93949.31;;;28.75;34.16
76086;BME280;64791;0.000;0.000;2023-09-19T11:56:17;93948.13;;;28.58;35.03
76086;BME280;64791;0.000;0.000;2023-09-19T11:58:48;93940.91;;;28.79;33.67
76086;BME280;64791;0.000;0.000;2023-09-19T12:01:31;93934.66;;;28.58;33.58
76086;BME280;64791;0.000;0.000;2023-09-19T12:03:58;93937.50;;;28.33;34.21
76086;BME280;64791;0.000;0.000;2023-09-19T12:06:25;93935.94;;;28.28;34.23
76086;BME280;64791;0.000;0.000;2023-09-19T12:08:51;93926.25;;;28.37;33.30
76086;BME280;64791;0.000;0.000;2023-09-19T12:11:19;93928.25;;;28.32;33.84
76086;BME280;64791;0.000;0.000;2023-09-19T12:13:46;93935.81;;;28.00;35.07
76086;BME280;64791;0.000;0.000;2023-09-19T12:16:18;93926.81;;;28.08;35.17
76086;BME280;64791;0.000;0.000;2023-09-19T12:18:47;93923.03;;;27.99;35.31
76086;BME280;64791;0.000;0.000;2023-09-19T12:26:42;93927.88;;;28.18;34.77
76086;BME280;64791;0.000;0.000;2023-09-19T12:29:12;93928.50;;;28.17;34.78
76086;BME280;64791;0.000;0.000;2023-09-19T12:31:59;93919.88;;;28.13;34.00
76086;BME280;64791;0.000;0.000;2023-09-19T12:34:31;93924.41;;;27.98;34.50
76086;BME280;64791;0.000;0.000;2023-09-19T12:37:03;93923.72;;;28.00;34.69
76086;BME280;64791;0.000;0.000;2023-09-19T12:39:31;93918.56;;;27.68;35.54
76086;BME280;64791;0.000;0.000;2023-09-19T12:41:56;93913.13;;;28.00;34.85
76086;BME280;64791;0.000;0.000;2023-09-19T12:44:23;93906.81;;;28.04;33.88
76086;BME280;64791;0.000;0.000;2023-09-19T12:46:50;93903.34;;;27.81;35.07
76086;BME280;64791;0.000;0.000;2023-09-19T12:49:19;93894.97;;;27.62;35.72
76086;BME280;64791;0.000;0.000;2023-09-19T12:51:45;93896.41;;;27.63;36.01
76086;BME280;64791;0.000;0.000;2023-09-19T12:54:11;93907.44;;;27.76;35.14
76086;BME280;64791;0.000;0.000;2023-09-19T12:56:41;93901.53;;;27.92;35.42
76086;BME280;64791;0.000;0.000;2023-09-19T12:59:11;93894.84;;;28.05;35.18
76086;BME280;64791;0.000;0.000;2023-09-19T13:01:39;93893.88;;;27.97;35.33
76086;BME280;64791;0.000;0.000;2023-09-19T13:06:43;93880.84;;;28.37;34.95
76086;BME280;64791;0.000;0.000;2023-09-19T13:09:10;93874.41;;;28.34;35.54
76086;BME280;64791;0.000;0.000;2023-09-19T13:11:37;93878.72;;;28.63;33.95
76086;BME280;64791;0.000;0.000;2023-09-19T13:14:24;93876.00;;;28.41;34.87
76086;BME280;64791;0.000;0.000;2023-09-19T13:16:54;93880.94;;;28.15;35.36
76086;BME280;64791;0.000;0.000;2023-09-19T13:19:37;93883.97;;;28.47;34.84
76086;BME280;64791;0.000;0.000;2023-09-19T13:22:03;93885.13;;;28.38;35.18
76086;BME280;64791;0.000;0.000;2023-09-19T13:24:29;93885.72;;;28.60;34.63
76086;BME280;64791;0.000;0.000;2023-09-19T13:26:56;93872.25;;;28.61;34.70
76086;BME280;64791;0.000;0.000;2023-09-19T13:29:22;93866.13;;;28.70;33.90
76086;BME280;64791;0.000;0.000;2023-09-19T13:31:49;93868.19;;;28.68;34.14
76086;BME280;64791;0.000;0.000;2023-09-19T13:34:15;93868.69;;;28.86;33.54
76086;BME280;64791;0.000;0.000;2023-09-19T13:36:41;93856.75;;;28.91;33.57
76086;BME280;64791;0.000;0.000;2023-09-19T13:39:07;93866.22;;;29.00;32.93
76086;BME280;64791;0.000;0.000;2023-09-19T13:41:34;93863.09;;;28.90;33.74
76086;BME280;64791;0.000;0.000;2023-09-19T13:44:02;93866.31;;;29.04;33.65
76086;BME280;64791;0.000;0.000;2023-09-19T13:46:28;93859.44;;;28.85;33.88
76086;BME280;64791;0.000;0.000;2023-09-19T13:48:56;93861.53;;;29.12;32.94
76086;BME280;64791;0.000;0.000;2023-09-19T13:51:27;93860.03;;;29.09;33.65
76086;BME280;64791;0.000;0.000;2023-09-19T13:53:53;93860.53;;;29.29;32.55
76086;BME280;64791;0.000;0.000;2023-09-19T13:56:19;93851.09;;;29.21;32.16
76086;BME280;64791;0.000;0.000;2023-09-19T13:58:45;93854.88;;;29.02;32.39
76086;BME280;64791;0.000;0.000;2023-09-19T14:01:11;93842.56;;;28.91;33.39
76086;BME280;64791;0.000;0.000;2023-09-19T14:03:41;93840.38;;;28.90;33.35
76086;BME280;64791;0.000;0.000;2023-09-19T14:06:12;93849.06;;;28.42;33.26
76086;BME280;64791;0.000;0.000;2023-09-19T14:08:37;93847.50;;;28.12;34.21
76086;BME280;64791;0.000;0.000;2023-09-19T14:11:09;93846.50;;;28.01;34.50
76086;BME280;64791;0.000;0.000;2023-09-19T14:13:35;93844.06;;;28.15;34.24